createdAt,value
2023-02-09T00:04:18.520Z,11.38
2023-02-09T00:09:21.381Z,10.98
2023-02-09T00:14:24.144Z,11.05
2023-02-09T00:19:28.746Z,10.75
2023-02-09T00:24:31.532Z,11.15
2023-02-09T00:29:34.278Z,11.07
2023-02-09T00:34:39.287Z,10.98
2023-02-09T00:39:42.129Z,10.98
2023-02-09T00:44:45.997Z,11.40
2023-02-09T00:49:50.089Z,11.07
2023-02-09T00:54:52.875Z,11.38
2023-02-09T00:59:55.666Z,13.40
2023-02-09T01:05:00.004Z,12.60
2023-02-09T01:10:03.421Z,12.15
2023-02-09T01:15:06.585Z,22.30
2023-02-09T01:20:13.415Z,12.77
2023-02-09T01:25:16.220Z,10.45
2023-02-09T01:30:19.035Z,12.43
2023-02-09T01:35:23.121Z,12.38
2023-02-09T01:40:25.874Z,12.73
2023-02-09T01:45:33.103Z,12.48
2023-02-09T01:50:40.417Z,11.95
2023-02-09T01:55:52.240Z,10.13
2023-02-09T02:00:55.129Z,10.60
2023-02-09T02:06:06.192Z,10.32
2023-02-09T02:11:09.785Z,11.35
2023-02-09T02:16:29.566Z,12.77
2023-02-09T02:22:20.100Z,10.85
2023-02-09T02:27:32.209Z,11.10
2023-02-09T02:32:53.694Z,10.82
2023-02-09T02:38:04.029Z,12.03
2023-02-09T02:43:19.165Z,10.23
2023-02-09T02:48:34.674Z,10.40
2023-02-09T02:53:41.753Z,11.43
2023-02-09T02:58:47.290Z,12.23
2023-02-09T03:03:53.088Z,10.85
2023-02-09T03:08:57.562Z,11.18
2023-02-09T03:14:15.327Z,11.95
2023-02-09T03:19:31.098Z,11.57
2023-02-09T03:24:39.010Z,10.43
2023-02-09T03:29:44.005Z,10.77
2023-02-09T03:34:48.985Z,9.88
2023-02-09T03:39:51.870Z,9.18
2023-02-09T03:44:54.631Z,11.35
2023-02-09T03:49:59.301Z,11.27
2023-02-09T03:55:03.185Z,10.10
2023-02-09T04:00:07.027Z,10.00
2023-02-09T04:05:16.024Z,11.40
2023-02-09T04:10:19.064Z,10.15
2023-02-09T04:15:21.835Z,10.52
2023-02-09T04:20:25.924Z,10.90
2023-02-09T04:25:28.730Z,10.05
2023-02-09T04:30:31.504Z,11.65
2023-02-09T04:35:35.619Z,11.13
2023-02-09T04:40:38.462Z,10.40
2023-02-09T04:45:42.341Z,11.63
2023-02-09T04:50:47.381Z,11.70
2023-02-09T04:55:52.445Z,10.23
2023-02-09T05:00:56.324Z,10.88
2023-02-09T05:06:02.714Z,12.30
2023-02-09T05:11:05.662Z,11.95
2023-02-09T05:16:10.320Z,10.68
2023-02-09T05:21:15.228Z,11.15
2023-02-09T05:26:18.803Z,10.95
2023-02-09T05:31:21.679Z,12.05
2023-02-09T05:36:25.828Z,10.95
2023-02-09T05:41:45.953Z,11.18
2023-02-09T05:46:48.613Z,10.90
2023-02-09T05:51:52.725Z,9.90
2023-02-09T05:56:55.439Z,10.40
2023-02-09T06:01:58.392Z,12.32
2023-02-09T06:07:02.457Z,11.60
2023-02-09T06:12:05.590Z,11.43
2023-02-09T06:17:08.334Z,11.60
2023-02-09T06:22:12.430Z,11.02
2023-02-09T06:27:15.187Z,11.75
2023-02-09T06:32:18.061Z,12.18
2023-02-09T06:37:22.218Z,11.25
2023-02-09T06:42:25.042Z,11.15
2023-02-09T06:47:28.080Z,10.18
2023-02-09T06:52:32.187Z,11.23
2023-02-09T06:57:35.382Z,11.57
2023-02-09T07:02:38.211Z,12.05
2023-02-09T07:07:42.740Z,11.50
2023-02-09T07:12:46.062Z,11.93
2023-02-09T07:17:48.800Z,12.73
2023-02-09T07:22:52.922Z,11.88
2023-02-09T07:27:55.731Z,12.18
2023-02-09T07:32:58.526Z,12.70
2023-02-09T07:38:02.687Z,14.00
2023-02-09T07:43:06.114Z,11.40
2023-02-09T07:48:11.022Z,11.80
2023-02-09T07:53:15.149Z,10.55
2023-02-09T07:58:19.927Z,9.63
2023-02-09T08:03:24.967Z,11.20
2023-02-09T08:08:29.238Z,10.27
2023-02-09T08:13:37.853Z,12.25
2023-02-09T08:18:44.070Z,17.67
2023-02-09T08:23:52.533Z,9.25
2023-02-09T08:28:55.873Z,12.50
2023-02-09T08:33:58.612Z,12.63
2023-02-09T08:39:03.168Z,11.75
2023-02-09T08:44:06.307Z,11.93
2023-02-09T08:49:09.072Z,13.73
2023-02-09T08:54:13.366Z,13.02
2023-02-09T08:59:17.851Z,13.00
2023-02-09T09:04:22.070Z,13.13
2023-02-09T09:09:26.577Z,13.23
2023-02-09T09:14:29.383Z,11.50
2023-02-09T09:19:32.116Z,11.25
2023-02-09T09:24:40.535Z,10.38
2023-02-09T09:29:43.361Z,9.98
2023-02-09T09:34:46.082Z,12.05
2023-02-09T09:39:50.813Z,9.90
2023-02-09T09:44:55.306Z,10.23
2023-02-09T09:49:58.118Z,11.48
2023-02-09T09:55:04.036Z,9.75
2023-02-09T10:00:18.157Z,10.65
2023-02-09T10:05:23.686Z,7.55
2023-02-09T10:10:38.866Z,11.20
2023-02-09T10:15:41.720Z,11.63
2023-02-09T10:20:47.935Z,11.43
2023-02-09T10:25:58.868Z,12.48
2023-02-09T10:31:04.389Z,9.27
2023-02-09T10:36:09.714Z,11.50
2023-02-09T10:41:15.787Z,14.88
2023-02-09T10:46:21.511Z,11.68
2023-02-09T10:51:29.086Z,11.32
2023-02-09T10:56:44.783Z,10.90
2023-02-09T11:01:55.371Z,10.40
2023-02-09T11:07:00.100Z,11.63
2023-02-09T11:12:04.417Z,11.60
2023-02-09T11:17:16.656Z,12.15
2023-02-09T11:22:28.836Z,9.38
2023-02-09T11:27:44.287Z,9.70
2023-02-09T11:32:52.632Z,12.43
2023-02-09T11:38:00.812Z,10.00
2023-02-09T11:43:15.760Z,10.73
2023-02-09T11:48:25.906Z,11.48
2023-02-09T11:53:35.817Z,11.43
2023-02-09T11:58:45.325Z,11.95
2023-02-09T12:04:04.202Z,12.40
2023-02-09T12:09:28.864Z,10.82
2023-02-09T12:14:49.064Z,11.27
2023-02-09T12:19:58.154Z,11.73
2023-02-09T12:25:19.478Z,12.73
2023-02-09T12:31:02.421Z,11.95
2023-02-09T12:36:25.110Z,12.82
2023-02-09T12:41:30.413Z,12.10
2023-02-09T12:46:53.473Z,12.18
2023-02-09T12:52:16.499Z,10.43
2023-02-09T12:57:52.552Z,12.00
2023-02-09T13:02:57.606Z,12.02
2023-02-09T13:08:07.355Z,11.65
2023-02-09T13:13:18.639Z,12.07
2023-02-09T13:18:32.530Z,13.23
2023-02-09T13:23:42.030Z,12.15
2023-02-09T13:28:44.847Z,11.82
2023-02-09T13:33:53.598Z,11.63
2023-02-09T13:38:56.376Z,11.20
2023-02-09T13:43:59.134Z,9.63
2023-02-09T13:49:13.945Z,11.18
2023-02-09T13:54:20.010Z,11.20
2023-02-09T13:59:23.433Z,10.82
2023-02-09T14:04:31.204Z,11.00
2023-02-09T14:09:44.579Z,10.50
2023-02-09T14:15:14.479Z,11.20
2023-02-09T14:20:24.522Z,10.55
2023-02-09T14:25:27.902Z,10.52
2023-02-09T14:30:36.250Z,10.77
2023-02-09T14:35:42.384Z,11.40
2023-02-09T14:40:45.234Z,10.35
2023-02-09T14:45:50.160Z,11.02
2023-02-09T14:50:56.771Z,11.48
2023-02-09T14:56:00.060Z,11.02
2023-02-09T15:07:54.422Z,9.98
2023-02-09T15:12:57.853Z,9.73
2023-02-09T15:18:01.270Z,9.23
2023-02-09T15:23:05.295Z,8.95
2023-02-09T15:28:13.676Z,8.82
2023-02-09T15:33:16.340Z,9.10
2023-02-09T15:38:21.029Z,10.52
2023-02-09T15:43:42.616Z,10.25
2023-02-09T15:48:45.389Z,10.68
2023-02-09T15:53:50.010Z,9.70
2023-02-09T15:58:53.300Z,9.73
2023-02-09T16:04:08.353Z,10.05
2023-02-09T16:09:21.542Z,11.00
2023-02-09T16:14:26.537Z,9.65
2023-02-09T16:19:29.301Z,10.20
2023-02-09T16:24:37.260Z,10.88
2023-02-09T16:29:41.209Z,10.95
2023-02-09T16:34:44.524Z,10.98
2023-02-09T16:39:48.947Z,12.82
2023-02-09T16:44:51.758Z,12.00
2023-02-09T16:50:00.387Z,12.23
2023-02-09T16:55:07.331Z,11.65
2023-02-09T17:00:11.880Z,13.07
2023-02-09T17:05:20.047Z,11.45
2023-02-09T17:10:28.396Z,12.55
2023-02-09T17:15:34.067Z,11.10
2023-02-09T17:20:41.116Z,11.73
2023-02-09T17:25:45.976Z,9.52
2023-02-09T17:30:50.142Z,11.07
2023-02-09T17:36:23.854Z,13.02
2023-02-09T17:41:20.057Z,12.02
2023-02-09T17:46:22.902Z,12.90
2023-02-09T17:51:31.890Z,10.45
2023-02-09T17:56:36.056Z,12.48
2023-02-09T18:01:41.459Z,13.10
2023-02-09T18:06:44.387Z,12.98
2023-02-09T18:12:01.951Z,12.25
2023-02-09T18:17:04.838Z,14.23
2023-02-09T18:22:07.919Z,12.15
2023-02-09T18:27:14.505Z,12.77
2023-02-09T18:32:18.245Z,9.75
2023-02-09T18:37:21.017Z,13.23
2023-02-09T18:42:25.172Z,13.63
2023-02-09T18:47:28.086Z,13.05
2023-02-09T18:52:30.978Z,12.55
2023-02-09T18:57:35.061Z,14.40
2023-02-09T19:02:37.820Z,13.55
2023-02-09T19:07:40.707Z,13.63
2023-02-09T19:12:45.322Z,10.38
2023-02-09T19:17:48.070Z,13.90
2023-02-09T19:22:51.641Z,11.88
2023-02-09T19:27:56.407Z,13.50
2023-02-09T19:33:00.050Z,14.00
2023-02-09T19:38:02.856Z,12.55
2023-02-09T19:43:07.236Z,12.88
2023-02-09T19:48:12.078Z,15.15
2023-02-09T19:53:15.550Z,14.20
2023-02-09T19:58:21.284Z,14.63
2023-02-09T20:03:24.833Z,13.70
2023-02-09T20:08:27.672Z,13.15
2023-02-09T20:13:34.202Z,11.48
2023-02-09T20:18:36.986Z,16.38
2023-02-09T20:23:39.798Z,18.23
2023-02-09T20:28:44.200Z,13.38
2023-02-09T20:33:47.149Z,18.40
2023-02-09T20:38:50.029Z,19.00
2023-02-09T20:44:11.607Z,13.35
2023-02-09T20:49:16.802Z,18.15
2023-02-09T20:54:19.583Z,15.13
2023-02-09T20:59:23.740Z,13.30
2023-02-09T21:04:30.126Z,10.18
2023-02-09T21:09:34.208Z,16.75
2023-02-09T21:14:41.990Z,16.27
2023-02-09T21:19:45.912Z,18.33
2023-02-09T21:24:48.694Z,19.00
2023-02-09T21:29:52.831Z,16.20
2023-02-09T21:34:55.604Z,16.80
2023-02-09T21:40:01.945Z,11.52
2023-02-09T21:45:08.018Z,16.63
2023-02-09T21:50:13.079Z,15.18
2023-02-09T21:55:16.960Z,16.27
2023-02-09T22:00:21.544Z,15.68
2023-02-09T22:05:25.010Z,16.63
2023-02-09T22:10:27.991Z,13.50
2023-02-09T22:15:32.153Z,21.88
2023-02-09T22:20:34.842Z,21.63
2023-02-09T22:25:37.665Z,15.73
2023-02-09T22:30:41.904Z,21.15
2023-02-09T22:35:44.818Z,14.18
2023-02-09T22:40:47.780Z,23.67
2023-02-09T22:45:57.019Z,22.45
2023-02-09T22:50:59.752Z,13.45
2023-02-09T22:56:03.195Z,24.45
2023-02-09T23:01:07.896Z,18.90
2023-02-09T23:06:13.810Z,22.65
2023-02-09T23:11:18.245Z,18.52
2023-02-09T23:16:24.508Z,19.95
2023-02-09T23:21:30.381Z,24.30
2023-02-09T23:26:33.245Z,20.75
2023-02-09T23:31:37.548Z,23.17
2023-02-09T23:36:40.340Z,24.25
2023-02-09T23:41:43.124Z,22.98
2023-02-09T23:46:47.291Z,19.90
2023-02-09T23:51:50.049Z,24.95
2023-02-09T23:56:53.619Z,20.08
